Time;durP1;ratioP1;P1;durP2;ratioP2;P2;SDS_P1;SDS_P2;PMS_P1;PMS_P2;Temp;Humidity;BMP_temperature;BMP_pressure;BME280_temperature;BME280_humidity;BME280_pressure;Samples;Min_cycle;Max_cycle;Signal;HPM_P1;HPM_P2
2022/01/30 00:04:25;;;;;;;22.92;5.47;;;;;;;4.77;100.00;102014.88;10356573;28;20565;-74
2022/01/30 00:09:26;;;;;;;20.77;4.60;;;;;;;4.93;100.00;102049.34;10372648;28;20034;-73
2022/01/30 00:14:29;;;;;;;23.30;4.68;;;;;;;4.97;100.00;102032.38;10372514;28;20026;-74
2022/01/30 00:19:56;;;;;;;21.52;6.15;;;;;;;5.02;100.00;102027.22;10356717;28;20093;-75
2022/01/30 00:24:57;;;;;;;28.63;4.22;;;;;;;4.98;100.00;102047.75;10374062;28;20061;-74
2022/01/30 00:29:58;;;;;;;27.42;5.10;;;;;;;4.89;100.00;102054.31;10371601;28;20122;-75
2022/01/30 00:34:59;;;;;;;14.85;3.53;;;;;;;4.84;100.00;102062.22;10378927;28;20036;-74
2022/01/30 00:39:59;;;;;;;20.60;3.83;;;;;;;4.70;100.00;102063.91;10371828;28;20425;-77
2022/01/30 00:45:00;;;;;;;16.08;3.80;;;;;;;4.65;100.00;102048.09;10339761;28;20030;-75
2022/01/30 00:50:00;;;;;;;19.30;3.53;;;;;;;4.63;100.00;102047.44;10355595;28;20042;-75
2022/01/30 00:55:01;;;;;;;11.15;2.92;;;;;;;4.65;100.00;102064.47;10338189;28;20038;-76
2022/01/30 01:00:02;;;;;;;15.27;2.65;;;;;;;4.64;100.00;102051.84;10354586;28;20065;-74
2022/01/30 01:05:05;;;;;;;18.65;2.53;;;;;;;4.51;100.00;102043.47;10355533;28;20433;-72
2022/01/30 01:10:11;;;;;;;20.33;3.40;;;;;;;4.59;100.00;102051.56;10388063;28;20061;-76
2022/01/30 01:25:50;;;;;;;12.93;2.90;;;;;;;4.63;100.00;102087.47;10403998;28;20033;-74
2022/01/30 01:30:51;;;;;;;28.35;5.07;;;;;;;4.64;100.00;102083.72;10428233;28;20041;-75
2022/01/30 01:35:51;;;;;;;31.80;5.10;;;;;;;4.91;100.00;102105.97;10429340;28;20061;-74
2022/01/30 01:40:53;;;;;;;30.98;5.50;;;;;;;5.01;100.00;102104.66;10416632;28;20037;-73
2022/01/30 01:45:56;;;;;;;33.28;6.50;;;;;;;5.08;100.00;102128.47;10435211;28;20045;-74
2022/01/30 01:51:06;;;;;;;29.73;6.55;;;;;;;4.81;100.00;102100.78;10435167;28;20049;-74
2022/01/30 01:56:06;;;;;;;28.42;5.00;;;;;;;5.18;100.00;102173.56;10393976;28;20042;-75
2022/01/30 02:01:07;;;;;;;21.02;4.45;;;;;;;4.90;100.00;102121.50;10377190;28;20042;-74
2022/01/30 02:06:12;;;;;;;33.75;5.78;;;;;;;4.88;100.00;102145.41;10394225;28;20049;-72
2022/01/30 02:11:17;;;;;;;26.17;4.68;;;;;;;4.91;100.00;102176.94;10393728;28;20097;-73
2022/01/30 02:26:51;;;;;;;39.33;6.95;;;;;;;4.75;100.00;102151.47;10392222;28;20045;-73
2022/01/30 02:31:55;;;;;;;31.70;5.82;;;;;;;4.83;100.00;102169.66;10393293;28;20044;-73
2022/01/30 02:36:56;;;;;;;44.78;8.15;;;;;;;4.88;100.00;102180.00;10392550;28;20038;-73
2022/01/30 02:41:57;;;;;;;37.45;6.13;;;;;;;4.73;100.00;102144.50;10391970;28;20030;-73
2022/01/30 02:47:02;;;;;;;35.63;6.55;;;;;;;5.08;100.00;102188.53;10391698;28;20516;-75
2022/01/30 02:52:06;;;;;;;27.73;6.82;;;;;;;5.13;100.00;102192.41;10392204;28;20084;-75
2022/01/30 02:57:06;;;;;;;37.05;7.22;;;;;;;4.95;100.00;102161.88;10399107;28;20398;-74
2022/01/30 03:02:07;;;;;;;28.33;4.47;;;;;;;4.07;100.00;102027.81;10389469;28;20038;-74
2022/01/30 03:07:07;;;;;;;31.30;5.53;;;;;;;5.01;100.00;102189.28;10393518;28;20057;-74
2022/01/30 03:12:09;;;;;;;41.35;6.20;;;;;;;5.07;100.00;102184.13;10373894;28;20026;-75
2022/01/30 03:17:09;;;;;;;33.63;5.75;;;;;;;4.90;100.00;102147.94;10390962;28;20041;-76
2022/01/30 03:22:10;;;;;;;42.33;9.10;;;;;;;5.20;100.00;102197.97;10389928;28;20037;-75
2022/01/30 03:27:12;;;;;;;34.80;7.95;;;;;;;5.17;100.00;102203.81;10425413;28;20029;-75
2022/01/30 03:32:13;;;;;;;27.35;5.95;;;;;;;5.24;100.00;102232.06;10404137;28;20044;-75
2022/01/30 03:37:13;;;;;;;40.25;7.28;;;;;;;5.26;100.00;102230.84;10397866;28;20033;-74
2022/01/30 03:42:14;;;;;;;35.72;6.75;;;;;;;5.24;100.00;102232.06;10414318;28;20037;-76
2022/01/30 03:47:14;;;;;;;33.75;6.18;;;;;;;5.30;100.00;102236.78;10430448;28;20033;-74
2022/01/30 03:52:16;;;;;;;41.03;7.97;;;;;;;5.33;100.00;102247.31;10414005;28;20045;-74
2022/01/30 03:57:17;;;;;;;35.85;6.30;;;;;;;5.25;100.00;102229.16;10431424;28;20065;-73
2022/01/30 04:02:17;;;;;;;37.30;7.80;;;;;;;5.32;100.00;102248.34;10388228;28;20042;-74
2022/01/30 04:07:18;;;;;;;49.60;8.88;;;;;;;5.32;100.00;102233.88;10388239;28;20042;-74
2022/01/30 04:12:18;;;;;;;53.38;9.00;;;;;;;5.35;100.00;102241.66;10388434;28;20029;-73
2022/01/30 04:17:19;;;;;;;39.83;7.13;;;;;;;5.30;100.00;102236.78;10390041;28;20037;-74
2022/01/30 04:22:20;;;;;;;30.17;7.25;;;;;;;5.33;100.00;102238.28;10404827;28;20394;-74
2022/01/30 04:27:20;;;;;;;37.83;8.40;;;;;;;5.39;100.00;102246.56;10371572;28;20029;-75
2022/01/30 04:32:22;;;;;;;42.78;7.20;;;;;;;5.59;100.00;102259.69;10372112;28;20040;-74
2022/01/30 04:37:50;;;;;;;38.97;6.95;;;;;;;5.47;100.00;102238.28;10371791;28;20041;-73
2022/01/30 05:03:35;;;;;;;40.15;9.20;;;;;;;5.05;100.00;102261.56;10386847;28;20048;-72
2022/01/30 05:08:36;;;;;;;31.73;7.85;;;;;;;5.02;100.00;102272.00;10387974;28;20042;-75
2022/01/30 05:13:41;;;;;;;43.85;7.20;;;;;;;5.04;100.00;102276.25;10372874;28;20037;-74
2022/01/30 05:18:42;;;;;;;34.47;7.07;;;;;;;5.02;100.00;102267.41;10395857;28;20048;-74
2022/01/30 05:23:43;;;;;;;49.22;8.45;;;;;;;4.76;100.00;102256.03;10397840;28;20040;-73
2022/01/30 05:28:43;;;;;;;37.38;7.93;;;;;;;5.03;100.00;102284.63;10432247;28;20410;-74
2022/01/30 05:33:44;;;;;;;40.78;7.88;;;;;;;5.11;100.00;102303.69;10394167;28;20063;-74
2022/01/30 05:38:46;;;;;;;51.65;8.43;;;;;;;5.09;100.00;102326.75;10395015;28;20045;-74
2022/01/30 05:43:50;;;;;;;53.15;10.55;;;;;;;4.73;100.00;102311.78;10411110;28;20026;-74
2022/01/30 05:48:51;;;;;;;38.47;8.10;;;;;;;4.38;100.00;102313.16;10394891;28;20098;-73
2022/01/30 05:53:51;;;;;;;42.55;9.05;;;;;;;4.36;100.00;102358.84;10392957;28;20050;-73
2022/01/30 05:58:52;;;;;;;48.80;10.82;;;;;;;4.12;100.00;102347.03;10393364;28;20038;-74
2022/01/30 06:03:52;;;;;;;47.53;10.23;;;;;;;4.07;100.00;102360.31;10423376;28;20045;-72
2022/01/30 06:09:11;;;;;;;62.78;9.52;;;;;;;4.02;100.00;102373.63;10436093;28;20038;-72
2022/01/30 06:14:12;;;;;;;54.17;10.70;;;;;;;3.59;100.00;102333.00;10434805;28;20026;-74
2022/01/30 06:19:12;;;;;;;49.38;8.68;;;;;;;3.64;100.00;102343.41;10434593;28;20046;-75
2022/01/30 06:24:13;;;;;;;61.53;8.50;;;;;;;3.71;100.00;102382.53;10417158;28;20038;-76
2022/01/30 06:29:13;;;;;;;55.13;10.57;;;;;;;3.78;100.00;102405.34;10415857;28;20053;-75
2022/01/30 06:34:14;;;;;;;59.22;9.18;;;;;;;3.83;100.00;102388.47;10433787;28;20022;-75
2022/01/30 06:39:14;;;;;;;53.65;11.05;;;;;;;3.89;100.00;102401.41;10417227;28;20033;-75
2022/01/30 06:44:15;;;;;;;54.53;9.65;;;;;;;3.93;100.00;102396.47;10433221;28;20044;-75
2022/01/30 06:49:15;;;;;;;46.55;10.30;;;;;;;3.87;100.00;102402.63;10401026;28;20021;-75
2022/01/30 06:54:16;;;;;;;46.03;7.97;;;;;;;3.90;100.00;102402.25;10431468;28;20041;-75
2022/01/30 06:59:16;;;;;;;51.28;10.13;;;;;;;3.97;100.00;102405.97;10383122;28;20064;-74
2022/01/30 07:04:17;;;;;;;39.92;9.40;;;;;;;4.08;100.00;102416.53;10432483;28;20045;-73
2022/01/30 07:09:17;;;;;;;31.05;8.43;;;;;;;3.79;100.00;102379.78;10433704;28;20068;-73
2022/01/30 07:14:18;;;;;;;34.67;6.35;;;;;;;3.96;100.00;102428.81;10433345;28;20030;-73
2022/01/30 07:19:18;;;;;;;33.70;6.25;;;;;;;3.98;100.00;102426.78;10432009;28;20025;-73
2022/01/30 07:24:19;;;;;;;27.90;6.07;;;;;;;3.80;100.00;102399.72;10390409;28;20038;-74
2022/01/30 07:29:19;;;;;;;43.30;6.45;;;;;;;3.96;100.00;102442.44;10386949;28;20097;-74
2022/01/30 07:34:22;;;;;;;32.03;6.95;;;;;;;4.09;100.00;102426.41;10390025;28;20033;-73
2022/01/30 07:39:27;;;;;;;30.63;7.43;;;;;;;4.22;100.00;102426.72;10391009;28;20046;-75
2022/01/30 07:44:28;;;;;;;29.77;8.93;;;;;;;4.14;100.00;102418.56;10390192;28;20029;-74
2022/01/30 07:49:28;;;;;;;33.88;6.22;;;;;;;3.77;100.00;102307.44;10373993;28;20264;-76
2022/01/30 07:54:32;;;;;;;33.25;6.30;;;;;;;4.08;100.00;102366.63;10387624;28;20041;-75
2022/01/30 07:59:32;;;;;;;35.63;5.95;;;;;;;4.60;100.00;102458.81;10372264;28;20038;-76
2022/01/30 08:04:33;;;;;;;39.47;6.75;;;;;;;4.76;100.00;102477.03;10372572;28;20054;-75
2022/01/30 08:09:33;;;;;;;44.22;7.35;;;;;;;4.81;100.00;102480.06;10390695;28;20033;-76
2022/01/30 08:14:33;;;;;;;42.30;7.78;;;;;;;4.84;100.00;102471.53;10373157;28;20497;-74
2022/01/30 08:19:34;;;;;;;41.20;6.85;;;;;;;4.98;100.00;102461.72;10390187;28;20038;-76
2022/01/30 08:24:35;;;;;;;42.70;8.65;;;;;;;5.01;100.00;102455.94;10413037;28;20535;-74
2022/01/30 08:29:37;;;;;;;48.83;7.55;;;;;;;5.16;100.00;102461.47;10403200;28;20038;-74
2022/01/30 08:34:39;;;;;;;48.10;7.78;;;;;;;5.30;100.00;102459.84;10388407;28;20040;-75
2022/01/30 08:39:39;;;;;;;45.03;8.15;;;;;;;5.27;100.00;102455.59;10388499;28;20038;-76
2022/01/30 08:44:40;;;;;;;40.15;7.72;;;;;;;5.16;100.00;102469.66;10388893;28;20041;-74
2022/01/30 08:49:40;;;;;;;39.65;9.40;;;;;;;5.01;100.00;102499.59;10393358;28;20065;-74
2022/01/30 08:54:40;;;;;;;42.83;9.00;;;;;;;4.84;100.00;102477.84;10395545;28;20030;-75
2022/01/30 08:59:41;;;;;;;26.58;8.57;;;;;;;4.88;100.00;102472.00;10395144;28;20041;-74
2022/01/30 09:04:42;;;;;;;36.97;8.63;;;;;;;4.99;100.00;102475.19;10390766;28;20084;-74
2022/01/30 09:09:42;;;;;;;37.50;8.32;;;;;;;5.05;100.00;102490.88;10397109;28;20038;-76
2022/01/30 09:14:43;;;;;;;39.33;7.32;;;;;;;5.09;100.00;102496.00;10396383;28;20394;-74
2022/01/30 09:19:44;;;;;;;31.85;7.00;;;;;;;5.15;100.00;102515.22;10396704;28;20030;-74
2022/01/30 09:24:45;;;;;;;44.97;7.65;;;;;;;4.83;100.00;102459.75;10377612;28;20038;-73
2022/01/30 09:29:46;;;;;;;50.13;9.30;;;;;;;5.35;100.00;102529.28;10395015;28;20172;-73
2022/01/30 09:34:46;;;;;;;37.55;8.50;;;;;;;5.54;100.00;102524.38;10396214;28;20045;-72
2022/01/30 09:39:47;;;;;;;52.47;9.30;;;;;;;5.83;100.00;102527.28;10395894;28;20045;-72
2022/01/30 09:44:47;;;;;;;35.60;8.55;;;;;;;5.96;100.00;102536.78;10420132;28;20431;-72
2022/01/30 09:49:51;;;;;;;42.38;7.57;;;;;;;5.92;100.00;102535.41;10434311;28;20478;-72
2022/01/30 09:54:52;;;;;;;42.78;10.55;;;;;;;5.80;100.00;102540.44;10407411;28;20064;-71
2022/01/30 09:59:54;;;;;;;38.88;8.77;;;;;;;5.83;100.00;102553.78;10428303;28;20044;-71
2022/01/30 10:04:55;;;;;;;39.00;9.30;;;;;;;5.84;100.00;102566.38;10400594;28;20029;-72
2022/01/30 10:10:07;;;;;;;38.78;8.45;;;;;;;5.93;100.00;102575.38;10434906;28;20489;-70
2022/01/30 10:15:11;;;;;;;36.45;7.80;;;;;;;5.98;100.00;102583.94;10435242;28;20064;-71
2022/01/30 10:20:13;;;;;;;40.50;8.32;;;;;;;6.06;100.00;102595.66;10413823;28;20049;-71
2022/01/30 10:25:38;;;;;;;47.90;8.85;;;;;;;6.16;100.00;102605.47;10415841;28;20125;-70
2022/01/30 10:30:41;;;;;;;32.10;8.10;;;;;;;6.16;100.00;102603.63;10434881;28;20045;-70
2022/01/30 10:36:00;;;;;;;48.15;9.30;;;;;;;6.24;100.00;102617.22;10432757;28;20236;-71
2022/01/30 10:41:17;;;;;;;31.98;6.50;;;;;;;6.30;100.00;102620.25;10431284;28;20088;-72
2022/01/30 10:46:28;;;;;;;34.75;7.05;;;;;;;6.64;100.00;102617.91;10431613;28;20437;-71
2022/01/30 10:51:30;;;;;;;43.55;8.05;;;;;;;6.33;100.00;102604.34;10415671;28;20084;-72
2022/01/30 10:56:31;;;;;;;70.22;8.25;;;;;;;6.31;100.00;102624.72;10413841;28;20033;-72
2022/01/30 11:01:31;;;;;;;49.22;7.38;;;;;;;6.41;100.00;102644.47;10393447;28;20030;-71
2022/01/30 11:06:37;;;;;;;35.90;6.45;;;;;;;6.37;100.00;102623.97;10432695;28;20028;-72
2022/01/30 11:11:43;;;;;;;37.90;8.93;;;;;;;6.57;97.94;102627.88;10430162;28;20481;-72
2022/01/30 11:22:08;;;;;;;26.83;6.15;;;;;;;6.81;90.78;102620.50;10415372;28;20037;-71
2022/01/30 11:27:08;;;;;;;28.83;4.97;;;;;;;6.91;91.39;102632.03;10395748;28;20067;-72
2022/01/30 11:32:09;;;;;;;35.58;7.43;;;;;;;6.80;90.16;102624.25;10427897;28;20025;-73
2022/01/30 11:37:11;;;;;;;40.55;6.78;;;;;;;7.06;92.56;102632.03;10429978;28;20040;-72
2022/01/30 11:42:12;;;;;;;35.30;6.30;;;;;;;7.33;92.60;102655.19;10410783;28;20041;-74
2022/01/30 11:47:12;;;;;;;42.17;8.23;;;;;;;7.22;92.56;102650.19;10429934;28;20051;-73
2022/01/30 11:52:14;;;;;;;34.17;6.88;;;;;;;6.74;95.21;102627.72;10430565;28;20053;-71
2022/01/30 11:57:20;;;;;;;43.35;8.77;;;;;;;6.95;96.27;102658.00;10429502;28;20025;-71
2022/01/30 12:02:30;;;;;;;;;;;;;;;7.15;95.47;102649.22;10428008;28;20034;-71
2022/01/30 12:07:48;;;;;;;32.90;6.72;;;;;;;7.30;94.53;102644.59;10426563;28;19972;-72
2022/01/30 12:12:56;;;;;;;34.30;8.20;;;;;;;7.43;94.16;102630.25;10429985;28;20053;-72
2022/01/30 12:17:57;;;;;;;37.53;6.47;;;;;;;7.36;94.89;102637.50;10426604;28;20038;-71
2022/01/30 12:22:57;;;;;;;28.95;5.95;;;;;;;7.03;96.33;102637.91;10429768;28;20034;-71
2022/01/30 12:28:01;;;;;;;35.45;7.25;;;;;;;6.62;97.71;102614.50;10428763;28;20044;-72
2022/01/30 12:33:02;;;;;;;41.95;7.55;;;;;;;6.85;96.92;102643.72;10425750;28;20030;-71
2022/01/30 12:38:02;;;;;;;38.55;8.90;;;;;;;6.76;97.22;102631.13;10425836;28;20127;-73
2022/01/30 12:43:03;;;;;;;29.90;7.35;;;;;;;7.05;96.14;102603.81;10429664;28;20041;-73
2022/01/30 12:48:07;;;;;;;26.73;5.95;;;;;;;7.55;94.02;102615.00;10428372;28;20026;-73
2022/01/30 12:53:08;;;;;;;28.85;6.32;;;;;;;7.64;89.34;102596.56;10428120;28;20026;-73
2022/01/30 12:58:08;;;;;;;29.52;5.65;;;;;;;7.74;88.30;102586.13;10411308;28;20061;-75
2022/01/30 13:03:09;;;;;;;28.48;6.28;;;;;;;7.81;90.23;102595.28;10378342;28;20033;-74
2022/01/30 13:08:09;;;;;;;23.75;4.90;;;;;;;8.51;88.20;102573.59;10391220;28;20497;-74
2022/01/30 13:13:10;;;;;;;34.35;6.97;;;;;;;7.74;87.32;102560.63;10406440;28;20030;-73
2022/01/30 13:18:10;;;;;;;33.00;6.93;;;;;;;7.23;88.23;102577.91;10429185;28;20041;-73
2022/01/30 13:23:11;;;;;;;32.97;6.88;;;;;;;6.32;88.08;102519.72;10412075;28;20060;-74
2022/01/30 13:28:19;;;;;;;28.17;7.85;;;;;;;6.93;90.04;102588.88;10429664;28;20021;-74
2022/01/30 13:33:19;;;;;;;37.53;6.97;;;;;;;7.64;86.80;102566.41;10411815;28;20048;-75
2022/01/30 13:38:25;;;;;;;33.60;8.40;;;;;;;8.24;83.25;102554.13;10436647;28;20033;-73
2022/01/30 13:43:30;;;;;;;29.13;5.53;;;;;;;8.59;81.40;102565.22;10388236;28;20076;-74
2022/01/30 13:48:33;;;;;;;34.55;5.97;;;;;;;7.20;84.88;102556.38;10392209;28;20340;-75
2022/01/30 13:53:36;;;;;;;30.70;5.85;;;;;;;6.59;88.05;102548.34;10410599;28;20452;-75
2022/01/30 13:58:37;;;;;;;30.20;4.72;;;;;;;7.08;86.93;102576.03;10393785;28;20335;-77
2022/01/30 14:03:39;;;;;;;27.02;4.30;;;;;;;7.63;84.56;102565.56;10409877;28;20050;-76
2022/01/30 14:08:48;;;;;;;34.70;6.05;;;;;;;8.33;81.59;102562.22;10394132;28;20046;-76
2022/01/30 14:13:52;;;;;;;26.20;4.63;;;;;;;8.15;82.23;102541.63;10392595;28;20026;-75
2022/01/30 14:18:55;;;;;;;18.67;5.13;;;;;;;7.50;83.85;102531.66;10377046;28;20042;-75
2022/01/30 14:23:56;;;;;;;31.73;6.55;;;;;;;7.11;86.13;102514.56;10433945;28;20048;-76
2022/01/30 14:29:09;;;;;;;27.98;6.03;;;;;;;6.92;86.64;102515.13;10399288;28;20044;-75
2022/01/30 14:34:10;;;;;;;24.70;5.65;;;;;;;6.17;87.86;102380.22;10433447;28;20025;-77
2022/01/30 14:39:13;;;;;;;31.23;6.97;;;;;;;6.89;87.92;102516.38;10417310;28;20044;-77
2022/01/30 14:44:14;;;;;;;26.17;5.63;;;;;;;6.98;89.13;102514.38;10430837;28;20053;-76
2022/01/30 14:49:14;;;;;;;28.58;4.93;;;;;;;6.74;90.48;102488.13;10392584;28;20057;-77
2022/01/30 14:54:16;;;;;;;26.08;4.60;;;;;;;6.55;92.01;102482.22;10392190;28;20466;-76
2022/01/30 14:59:16;;;;;;;35.05;5.18;;;;;;;6.01;93.88;102480.50;10419161;28;20513;-77
2022/01/30 15:04:17;;;;;;;26.40;6.18;;;;;;;5.82;96.42;102497.38;10439641;28;20094;-76
2022/01/30 15:09:17;;;;;;;24.00;5.45;;;;;;;5.84;98.12;102501.63;10440639;28;20053;-76
2022/01/30 15:14:23;;;;;;;30.60;7.13;;;;;;;5.75;99.72;102491.81;10457162;28;20033;-76
2022/01/30 15:19:23;;;;;;;28.48;6.07;;;;;;;5.74;100.00;102483.78;10455804;28;20507;-76
2022/01/30 15:24:24;;;;;;;34.33;8.30;;;;;;;5.59;100.00;102459.97;10449436;28;20021;-76
2022/01/30 15:29:24;;;;;;;29.85;7.05;;;;;;;5.53;100.00;102465.34;10452562;28;20025;-76
2022/01/30 15:34:25;;;;;;;30.48;7.20;;;;;;;5.56;100.00;102457.63;10437957;28;20029;-76
2022/01/30 15:39:25;;;;;;;30.65;5.50;;;;;;;5.47;100.00;102445.03;10437182;28;20033;-75
2022/01/30 15:44:36;;;;;;;21.02;4.70;;;;;;;5.34;100.00;102444.81;10451640;28;20041;-75
2022/01/30 15:49:37;;;;;;;28.30;5.65;;;;;;;5.21;100.00;102439.94;10447278;28;20409;-76
2022/01/30 15:54:38;;;;;;;33.80;7.47;;;;;;;5.00;100.00;102438.72;10443143;28;20630;-75
2022/01/30 15:59:38;;;;;;;58.88;15.55;;;;;;;4.88;100.00;102426.50;10424984;28;20037;-75
2022/01/30 16:04:39;;;;;;;43.50;8.10;;;;;;;4.84;100.00;102434.16;10460821;28;20040;-75
2022/01/30 16:09:39;;;;;;;41.63;8.48;;;;;;;4.72;100.00;102441.06;10458673;28;20056;-75
2022/01/30 16:19:59;;;;;;;32.05;7.60;;;;;;;4.51;100.00;102440.81;10454586;28;20036;-75
2022/01/30 16:24:59;;;;;;;39.00;7.85;;;;;;;4.52;100.00;102439.75;10438454;28;20029;-76
2022/01/30 16:30:00;;;;;;;41.33;6.93;;;;;;;4.58;100.00;102439.91;10418806;28;20025;-75
2022/01/30 16:35:00;;;;;;;37.25;8.73;;;;;;;4.60;100.00;102426.94;10454211;28;20052;-75
2022/01/30 16:40:01;;;;;;;47.65;9.15;;;;;;;4.46;100.00;102392.22;10437398;28;20053;-74
2022/01/30 16:45:10;;;;;;;44.13;8.25;;;;;;;4.21;100.00;102375.94;10419702;28;21129;-75
2022/01/30 16:50:11;;;;;;;37.30;6.40;;;;;;;4.36;100.00;102407.94;10419447;28;20044;-75
2022/01/30 16:55:11;;;;;;;33.78;6.57;;;;;;;4.34;100.00;102409.97;10451541;28;20039;-74
2022/01/30 17:00:13;;;;;;;33.50;6.45;;;;;;;4.20;100.00;102398.78;10433894;28;20488;-75
2022/01/30 17:05:14;;;;;;;33.45;6.20;;;;;;;4.09;100.00;102374.63;10459896;28;20076;-75
2022/01/30 17:10:18;;;;;;;53.25;8.73;;;;;;;3.87;100.00;102369.94;10442348;28;20041;-74
2022/01/30 17:15:19;;;;;;;52.05;9.43;;;;;;;3.90;100.00;102380.47;10428935;28;20041;-74
2022/01/30 17:20:21;;;;;;;39.78;7.05;;;;;;;3.81;100.00;102387.81;10445115;28;20032;-75
2022/01/30 17:25:21;;;;;;;38.10;7.00;;;;;;;3.63;100.00;102349.84;10448975;28;20029;-75
2022/01/30 17:30:22;;;;;;;31.55;6.95;;;;;;;3.68;100.00;102366.53;10466283;28;20033;-74
2022/01/30 17:35:26;;;;;;;37.05;10.07;;;;;;;3.57;100.00;102361.44;10457228;28;20029;-75
2022/01/30 17:40:27;;;;;;;46.72;9.02;;;;;;;3.53;100.00;102368.25;10441047;28;20037;-74
2022/01/30 17:45:28;;;;;;;35.45;8.80;;;;;;;3.39;100.00;102357.03;10425975;28;20053;-74
2022/01/30 17:50:28;;;;;;;39.15;6.93;;;;;;;3.32;100.00;102356.00;10456745;28;20033;-74
2022/01/30 17:55:29;;;;;;;43.53;6.03;;;;;;;3.26;100.00;102362.13;10440608;28;20025;-75
2022/01/30 18:00:29;;;;;;;38.65;7.80;;;;;;;3.01;100.00;102351.19;10457947;28;20068;-74
2022/01/30 18:05:30;;;;;;;27.92;6.55;;;;;;;3.05;100.00;102343.56;10441652;28;20042;-73
2022/01/30 18:10:30;;;;;;;33.70;8.95;;;;;;;2.99;100.00;102349.69;10392227;28;20041;-74
2022/01/30 18:15:31;;;;;;;41.35;8.63;;;;;;;2.96;100.00;102339.16;10396434;28;20033;-74
2022/01/30 18:20:31;;;;;;;53.35;7.75;;;;;;;2.88;100.00;102336.41;10401771;28;20079;-74
2022/01/30 18:25:32;;;;;;;36.90;7.57;;;;;;;2.70;100.00;102312.06;10404293;28;20095;-74
2022/01/30 18:30:32;;;;;;;34.55;8.73;;;;;;;2.76;100.00;102330.44;10414089;28;20029;-77
2022/01/30 18:35:39;;;;;;;41.38;8.23;;;;;;;2.39;100.00;102256.41;10415787;28;20433;-73
2022/01/30 18:40:58;;;;;;;45.30;9.40;;;;;;;2.61;100.00;102295.72;10399796;28;20126;-76
2022/01/30 18:45:59;;;;;;;37.72;6.03;;;;;;;2.44;100.00;102266.81;10379913;28;20172;-74
2022/01/30 18:50:59;;;;;;;44.00;9.00;;;;;;;2.45;100.00;102273.94;10392072;28;20093;-74
2022/01/30 18:56:00;;;;;;;37.10;6.70;;;;;;;2.37;100.00;102272.03;10406711;28;20037;-74
2022/01/30 19:01:00;;;;;;;42.78;9.07;;;;;;;2.40;100.00;102269.00;10412289;28;20033;-74
2022/01/30 19:06:01;;;;;;;35.65;6.68;;;;;;;2.44;100.00;102253.22;10423107;28;20045;-76
2022/01/30 19:11:01;;;;;;;29.75;6.47;;;;;;;2.43;100.00;102244.19;10399979;28;20034;-76
2022/01/30 19:16:02;;;;;;;47.53;7.07;;;;;;;2.44;100.00;102239.63;10421595;28;20034;-76
2022/01/30 19:21:02;;;;;;;37.40;6.30;;;;;;;1.48;100.00;102068.97;10393984;28;20038;-76
2022/01/30 19:26:03;;;;;;;37.65;7.47;;;;;;;2.39;100.00;102218.38;10429906;28;20029;-76
2022/01/30 19:31:04;;;;;;;28.58;6.53;;;;;;;2.36;100.00;102209.72;10432153;28;20037;-76
2022/01/30 19:36:04;;;;;;;36.13;7.80;;;;;;;2.27;100.00;102194.41;10430739;28;20030;-76
2022/01/30 19:41:06;;;;;;;39.50;7.82;;;;;;;2.31;100.00;102193.91;10430706;28;20045;-76
2022/01/30 19:46:09;;;;;;;43.67;7.03;;;;;;;2.20;100.00;102154.31;10413339;28;20029;-76
2022/01/30 19:51:09;;;;;;;28.10;7.25;;;;;;;2.32;100.00;102167.59;10429692;28;20045;-76
2022/01/30 19:56:10;;;;;;;38.58;6.93;;;;;;;2.26;100.00;102141.09;10374725;28;20034;-76
2022/01/30 20:01:10;;;;;;;25.45;5.90;;;;;;;2.28;100.00;102117.31;10388830;28;20072;-76
2022/01/30 20:06:11;;;;;;;28.33;5.68;;;;;;;1.44;100.00;101970.72;10389786;28;20046;-76
2022/01/30 20:11:12;;;;;;;29.48;6.43;;;;;;;2.37;100.00;102113.56;10355017;28;20042;-77
2022/01/30 20:16:12;;;;;;;38.42;7.30;;;;;;;2.30;100.00;102088.94;10387608;28;20026;-76
2022/01/30 20:21:13;;;;;;;44.40;6.65;;;;;;;2.42;100.00;102103.06;10369752;28;20038;-76
2022/01/30 20:26:14;;;;;;;39.53;7.25;;;;;;;2.25;100.00;102049.69;10387305;28;20037;-76
2022/01/30 20:31:14;;;;;;;38.85;7.72;;;;;;;2.52;100.00;102016.72;10370084;28;20091;-77
2022/01/30 20:36:15;;;;;;;37.45;7.93;;;;;;;2.50;100.00;102055.97;10388322;28;20482;-76
2022/01/30 20:41:15;;;;;;;31.90;5.97;;;;;;;2.46;100.00;102039.16;10410340;28;20052;-77
2022/01/30 20:46:16;;;;;;;28.40;6.80;;;;;;;2.68;100.00;102026.69;10393888;28;20029;-76
2022/01/30 20:51:16;;;;;;;20.58;5.68;;;;;;;2.72;100.00;102010.91;10420068;28;20037;-77
2022/01/30 20:56:17;;;;;;;42.35;7.35;;;;;;;2.72;100.00;101978.25;10392348;28;20038;-76
2022/01/30 21:01:17;;;;;;;33.90;5.97;;;;;;;2.74;100.00;101959.91;10385756;28;20057;-74
2022/01/30 21:06:18;;;;;;;31.38;7.05;;;;;;;2.69;100.00;101910.63;10410019;28;20137;-76
2022/01/30 21:11:23;;;;;;;37.97;8.32;;;;;;;2.77;100.00;101907.88;10426304;28;20037;-74
2022/01/30 21:16:23;;;;;;;35.58;7.93;;;;;;;2.73;100.00;101907.41;10385890;28;20229;-76
2022/01/30 21:21:24;;;;;;;25.27;5.93;;;;;;;2.76;100.00;101893.44;10368776;28;20041;-76
2022/01/30 21:26:24;;;;;;;36.30;5.90;;;;;;;2.81;100.00;101858.41;10386793;28;20056;-76
2022/01/30 21:31:25;;;;;;;18.25;5.32;;;;;;;2.47;100.00;101768.19;10385665;28;20046;-77
2022/01/30 21:36:25;;;;;;;25.75;5.18;;;;;;;2.89;100.00;101816.69;10370024;28;20066;-77
2022/01/30 21:41:26;;;;;;;26.27;6.13;;;;;;;2.86;100.00;101822.50;10380216;28;20042;-76
2022/01/30 21:46:26;;;;;;;30.65;5.90;;;;;;;2.95;100.00;101807.81;10353434;28;20049;-77
2022/01/30 21:51:27;;;;;;;34.63;6.57;;;;;;;2.96;100.00;101787.75;10354740;28;20018;-76
2022/01/30 21:56:27;;;;;;;23.95;6.53;;;;;;;2.91;100.00;101767.56;10397130;28;20027;-76
2022/01/30 22:01:28;;;;;;;29.27;5.63;;;;;;;3.00;100.00;101764.59;10400329;28;20374;-76
2022/01/30 22:06:28;;;;;;;35.35;6.13;;;;;;;3.00;100.00;101775.47;10415923;28;20073;-77
2022/01/30 22:11:34;;;;;;;26.23;5.97;;;;;;;3.04;100.00;101743.31;10435032;28;20038;-77
2022/01/30 22:16:34;;;;;;;26.13;5.07;;;;;;;2.95;100.00;101728.09;10418085;28;20079;-77
2022/01/30 22:21:35;;;;;;;36.33;7.53;;;;;;;2.93;100.00;101714.66;10434023;28;20653;-77
2022/01/30 22:26:35;;;;;;;25.38;5.75;;;;;;;2.98;100.00;101704.09;10416681;28;20035;-77
2022/01/30 22:31:36;;;;;;;25.38;4.85;;;;;;;2.49;100.00;101598.47;10417468;28;20049;-76
2022/01/30 22:36:37;;;;;;;33.22;5.63;;;;;;;2.97;100.00;101622.66;10433591;28;20038;-78
2022/01/30 22:41:37;;;;;;;31.88;4.30;;;;;;;2.94;100.00;101609.44;10416081;28;20037;-77
2022/01/30 22:46:38;;;;;;;16.73;4.55;;;;;;;2.98;100.00;101580.84;10431475;28;20689;-74
2022/01/30 22:51:38;;;;;;;27.20;5.07;;;;;;;2.96;100.00;101545.66;10434094;28;20029;-76
2022/01/30 22:56:39;;;;;;;27.25;6.97;;;;;;;2.50;100.00;101475.16;10402006;28;20034;-77
2022/01/30 23:01:39;;;;;;;35.10;6.70;;;;;;;2.82;100.00;101506.53;10380233;28;20093;-76
2022/01/30 23:06:40;;;;;;;28.80;6.80;;;;;;;2.87;100.00;101475.22;10378562;28;20038;-78
2022/01/30 23:11:40;;;;;;;31.88;6.50;;;;;;;2.83;100.00;101448.41;10390760;28;20034;-77
2022/01/30 23:16:41;;;;;;;23.65;6.35;;;;;;;2.67;100.00;101426.00;10390580;28;20046;-76
2022/01/30 23:21:41;;;;;;;22.98;4.80;;;;;;;2.81;100.00;101400.66;10374239;28;20032;-75
2022/01/30 23:26:44;;;;;;;17.42;4.00;;;;;;;2.85;100.00;101331.28;10379593;28;20029;-74
2022/01/30 23:31:45;;;;;;;22.55;4.45;;;;;;;2.93;100.00;101338.47;10408038;28;20053;-76
2022/01/30 23:36:45;;;;;;;26.13;7.30;;;;;;;2.95;100.00;101303.78;10428703;28;20038;-77
2022/01/30 23:41:53;;;;;;;26.30;4.68;;;;;;;3.05;100.00;101301.56;10430036;28;20033;-77
2022/01/30 23:46:54;;;;;;;24.67;5.57;;;;;;;3.09;100.00;101277.56;10415530;28;20484;-77